Terminal Aerodrome Forecast
Issued by NWS Cleveland, OH

Home | Current Version | Previous Version | Text Only | Print | Product List | Glossary Off
Versions: 1 2 3 4 5 6 7 8 9 10 11 12 13

240
FTUS41 KCLE 241727
TAFERI
TAF
KERI 241727Z 2418/2518 30005KT P6SM SKC
     FM250100 VRB03KT P6SM SKC
     FM251400 23005KT P6SM SCT250=

USA.gov is the U.S. government's official web portal to all federal, state and local government web resources and services.